sensor_id;sensor_type;location;lat;lon;timestamp;pressure;altitude;pressure_sealevel;temperature;humidity
70103;BME280;57470;50.034;15.256;2024-01-27T00:00:17;100411.25;;;5.02;88.57
70103;BME280;57470;50.034;15.256;2024-01-27T00:02:43;100412.22;;;4.99;88.36
70103;BME280;57470;50.034;15.256;2024-01-27T00:05:08;100416.72;;;4.96;88.24
70103;BME280;57470;50.034;15.256;2024-01-27T00:07:34;100416.78;;;4.93;88.00
70103;BME280;57470;50.034;15.256;2024-01-27T00:09:59;100422.94;;;4.93;87.68
70103;BME280;57470;50.034;15.256;2024-01-27T00:12:25;100437.47;;;5.06;87.65
70103;BME280;57470;50.034;15.256;2024-01-27T00:14:51;100428.84;;;5.01;87.64
70103;BME280;57470;50.034;15.256;2024-01-27T00:17:16;100433.59;;;4.90;88.13
70103;BME280;57470;50.034;15.256;2024-01-27T00:19:42;100426.91;;;4.78;87.94
70103;BME280;57470;50.034;15.256;2024-01-27T00:22:08;100430.91;;;4.92;87.67
70103;BME280;57470;50.034;15.256;2024-01-27T00:24:33;100430.41;;;4.79;88.14
70103;BME280;57470;50.034;15.256;2024-01-27T00:27:00;100446.63;;;4.95;87.82
70103;BME280;57470;50.034;15.256;2024-01-27T00:29:25;100451.22;;;4.88;87.44
70103;BME280;57470;50.034;15.256;2024-01-27T00:31:51;100454.03;;;4.82;86.87
70103;BME280;57470;50.034;15.256;2024-01-27T00:34:16;100459.84;;;4.93;86.04
70103;BME280;57470;50.034;15.256;2024-01-27T00:36:42;100461.81;;;4.86;86.44
70103;BME280;57470;50.034;15.256;2024-01-27T00:39:16;100465.22;;;4.90;85.89
70103;BME280;57470;50.034;15.256;2024-01-27T00:41:42;100459.34;;;4.80;86.66
70103;BME280;57470;50.034;15.256;2024-01-27T00:44:08;100468.56;;;4.95;86.47
70103;BME280;57470;50.034;15.256;2024-01-27T00:46:33;100465.25;;;4.88;86.79
70103;BME280;57470;50.034;15.256;2024-01-27T00:48:59;100471.50;;;4.84;87.29
70103;BME280;57470;50.034;15.256;2024-01-27T00:51:24;100480.56;;;4.76;87.31
70103;BME280;57470;50.034;15.256;2024-01-27T00:53:50;100482.63;;;4.96;86.77
70103;BME280;57470;50.034;15.256;2024-01-27T00:56:15;100484.50;;;4.92;87.38
70103;BME280;57470;50.034;15.256;2024-01-27T00:58:41;100485.22;;;4.97;87.50
70103;BME280;57470;50.034;15.256;2024-01-27T01:01:06;100486.31;;;4.90;87.31
70103;BME280;57470;50.034;15.256;2024-01-27T01:03:32;100487.81;;;4.99;87.42
70103;BME280;57470;50.034;15.256;2024-01-27T01:05:57;100492.56;;;4.86;87.24
70103;BME280;57470;50.034;15.256;2024-01-27T01:08:23;100500.94;;;5.00;87.49
70103;BME280;57470;50.034;15.256;2024-01-27T01:10:48;100498.50;;;4.93;86.71
70103;BME280;57470;50.034;15.256;2024-01-27T01:13:14;100506.41;;;4.93;87.20
70103;BME280;57470;50.034;15.256;2024-01-27T01:15:39;100512.91;;;4.82;87.02
70103;BME280;57470;50.034;15.256;2024-01-27T01:18:05;100507.50;;;4.85;87.00
70103;BME280;57470;50.034;15.256;2024-01-27T01:20:30;100510.63;;;5.00;86.31
70103;BME280;57470;50.034;15.256;2024-01-27T01:22:57;100500.72;;;4.77;85.98
70103;BME280;57470;50.034;15.256;2024-01-27T01:25:23;100512.47;;;4.96;85.86
70103;BME280;57470;50.034;15.256;2024-01-27T01:27:48;100513.56;;;4.89;85.84
70103;BME280;57470;50.034;15.256;2024-01-27T01:30:15;100518.09;;;4.84;86.00
70103;BME280;57470;50.034;15.256;2024-01-27T01:32:42;100521.75;;;4.80;86.27
70103;BME280;57470;50.034;15.256;2024-01-27T01:35:08;100516.41;;;4.83;85.89
70103;BME280;57470;50.034;15.256;2024-01-27T01:37:33;100520.44;;;4.95;85.77
70103;BME280;57470;50.034;15.256;2024-01-27T01:39:59;100521.00;;;4.75;86.22
70103;BME280;57470;50.034;15.256;2024-01-27T01:42:24;100518.91;;;4.86;85.44
70103;BME280;57470;50.034;15.256;2024-01-27T01:44:51;100516.03;;;4.64;85.92
70103;BME280;57470;50.034;15.256;2024-01-27T01:47:18;100521.34;;;4.63;85.08
70103;BME280;57470;50.034;15.256;2024-01-27T01:49:43;100527.28;;;4.71;85.38
70103;BME280;57470;50.034;15.256;2024-01-27T01:52:09;100521.66;;;4.50;85.43
70103;BME280;57470;50.034;15.256;2024-01-27T01:54:35;100521.59;;;4.53;85.77
70103;BME280;57470;50.034;15.256;2024-01-27T01:57:02;100524.50;;;4.43;85.69
70103;BME280;57470;50.034;15.256;2024-01-27T01:59:28;100530.44;;;4.51;85.79
70103;BME280;57470;50.034;15.256;2024-01-27T02:01:54;100531.94;;;4.61;85.44
70103;BME280;57470;50.034;15.256;2024-01-27T02:04:19;100529.06;;;4.69;85.06
70103;BME280;57470;50.034;15.256;2024-01-27T02:06:44;100533.47;;;4.68;85.05
70103;BME280;57470;50.034;15.256;2024-01-27T02:09:10;100530.78;;;4.71;85.08
70103;BME280;57470;50.034;15.256;2024-01-27T02:11:35;100532.78;;;4.62;84.83
70103;BME280;57470;50.034;15.256;2024-01-27T02:14:01;100531.41;;;4.79;84.67
70103;BME280;57470;50.034;15.256;2024-01-27T02:16:26;100527.91;;;4.79;83.80
70103;BME280;57470;50.034;15.256;2024-01-27T02:18:51;100520.59;;;4.58;84.66
70103;BME280;57470;50.034;15.256;2024-01-27T02:21:17;100535.25;;;4.68;84.26
70103;BME280;57470;50.034;15.256;2024-01-27T02:23:43;100537.88;;;4.68;84.31
70103;BME280;57470;50.034;15.256;2024-01-27T02:26:11;100524.22;;;4.53;84.37
70103;BME280;57470;50.034;15.256;2024-01-27T02:28:38;100526.09;;;4.48;84.54
70103;BME280;57470;50.034;15.256;2024-01-27T02:31:04;100525.22;;;4.49;84.85
70103;BME280;57470;50.034;15.256;2024-01-27T02:33:31;100526.47;;;4.36;85.09
70103;BME280;57470;50.034;15.256;2024-01-27T02:35:57;100527.97;;;4.45;84.56
70103;BME280;57470;50.034;15.256;2024-01-27T02:38:24;100527.81;;;4.51;84.18
70103;BME280;57470;50.034;15.256;2024-01-27T02:40:51;100522.72;;;4.45;84.63
70103;BME280;57470;50.034;15.256;2024-01-27T02:43:17;100533.34;;;4.40;84.67
70103;BME280;57470;50.034;15.256;2024-01-27T02:45:44;100538.78;;;4.34;84.78
70103;BME280;57470;50.034;15.256;2024-01-27T02:48:11;100528.19;;;4.37;84.77
70103;BME280;57470;50.034;15.256;2024-01-27T02:50:38;100531.06;;;4.28;84.73
70103;BME280;57470;50.034;15.256;2024-01-27T02:53:06;100540.50;;;4.37;84.60
70103;BME280;57470;50.034;15.256;2024-01-27T02:55:33;100544.50;;;4.50;84.46
70103;BME280;57470;50.034;15.256;2024-01-27T02:58:00;100549.50;;;4.28;84.75
70103;BME280;57470;50.034;15.256;2024-01-27T03:00:26;100543.25;;;4.31;84.88
70103;BME280;57470;50.034;15.256;2024-01-27T03:02:53;100558.75;;;4.43;84.70
70103;BME280;57470;50.034;15.256;2024-01-27T03:05:20;100564.09;;;4.40;84.62
70103;BME280;57470;50.034;15.256;2024-01-27T03:07:47;100572.78;;;4.43;84.84
70103;BME280;57470;50.034;15.256;2024-01-27T03:10:13;100571.31;;;4.32;84.48
70103;BME280;57470;50.034;15.256;2024-01-27T03:12:40;100563.16;;;4.42;84.42
70103;BME280;57470;50.034;15.256;2024-01-27T03:15:07;100562.47;;;4.36;84.72
70103;BME280;57470;50.034;15.256;2024-01-27T03:17:34;100567.38;;;4.48;84.71
70103;BME280;57470;50.034;15.256;2024-01-27T03:20:01;100569.75;;;4.59;84.11
70103;BME280;57470;50.034;15.256;2024-01-27T03:22:27;100575.13;;;4.56;84.09
70103;BME280;57470;50.034;15.256;2024-01-27T03:24:54;100579.66;;;4.49;83.98
70103;BME280;57470;50.034;15.256;2024-01-27T03:27:20;100583.28;;;4.45;84.45
70103;BME280;57470;50.034;15.256;2024-01-27T03:29:45;100583.94;;;4.55;84.25
70103;BME280;57470;50.034;15.256;2024-01-27T03:32:11;100584.81;;;4.53;83.69
70103;BME280;57470;50.034;15.256;2024-01-27T03:34:43;100599.00;;;4.48;84.39
70103;BME280;57470;50.034;15.256;2024-01-27T03:37:08;100600.94;;;4.41;84.49
70103;BME280;57470;50.034;15.256;2024-01-27T03:39:33;100604.25;;;4.48;84.80
70103;BME280;57470;50.034;15.256;2024-01-27T03:41:59;100605.38;;;4.39;85.21
70103;BME280;57470;50.034;15.256;2024-01-27T03:44:24;100610.47;;;4.47;84.91
70103;BME280;57470;50.034;15.256;2024-01-27T03:46:50;100616.09;;;4.66;84.22
70103;BME280;57470;50.034;15.256;2024-01-27T03:49:16;100620.72;;;4.58;84.32
70103;BME280;57470;50.034;15.256;2024-01-27T03:51:41;100620.59;;;4.62;83.98
70103;BME280;57470;50.034;15.256;2024-01-27T03:54:07;100630.03;;;4.71;83.88
70103;BME280;57470;50.034;15.256;2024-01-27T03:56:32;100636.38;;;4.64;84.23
70103;BME280;57470;50.034;15.256;2024-01-27T03:58:57;100642.41;;;4.67;83.38
70103;BME280;57470;50.034;15.256;2024-01-27T04:01:23;100634.97;;;4.49;83.79
70103;BME280;57470;50.034;15.256;2024-01-27T04:03:48;100639.22;;;4.56;83.58
70103;BME280;57470;50.034;15.256;2024-01-27T04:06:14;100639.13;;;4.59;83.92
70103;BME280;57470;50.034;15.256;2024-01-27T04:08:40;100633.31;;;4.46;84.06
70103;BME280;57470;50.034;15.256;2024-01-27T04:11:09;100637.91;;;4.38;83.65
70103;BME280;57470;50.034;15.256;2024-01-27T04:13:35;100635.13;;;4.44;83.70
70103;BME280;57470;50.034;15.256;2024-01-27T04:16:01;100644.59;;;4.51;83.61
70103;BME280;57470;50.034;15.256;2024-01-27T04:18:26;100639.50;;;4.44;83.29
70103;BME280;57470;50.034;15.256;2024-01-27T04:20:52;100638.88;;;4.34;83.39
70103;BME280;57470;50.034;15.256;2024-01-27T04:23:17;100643.97;;;4.40;82.58
70103;BME280;57470;50.034;15.256;2024-01-27T04:25:43;100646.06;;;4.63;82.49
70103;BME280;57470;50.034;15.256;2024-01-27T04:28:08;100643.94;;;4.42;82.43
70103;BME280;57470;50.034;15.256;2024-01-27T04:30:36;100653.22;;;4.57;82.36
70103;BME280;57470;50.034;15.256;2024-01-27T04:33:01;100665.25;;;4.67;81.84
70103;BME280;57470;50.034;15.256;2024-01-27T04:35:27;100662.22;;;4.48;81.60
70103;BME280;57470;50.034;15.256;2024-01-27T04:37:53;100663.91;;;4.52;81.70
70103;BME280;57470;50.034;15.256;2024-01-27T04:40:18;100663.09;;;4.48;81.91
70103;BME280;57470;50.034;15.256;2024-01-27T04:42:44;100663.25;;;4.42;81.94
70103;BME280;57470;50.034;15.256;2024-01-27T04:45:09;100677.28;;;4.43;81.85
70103;BME280;57470;50.034;15.256;2024-01-27T04:47:35;100673.06;;;4.36;82.09
70103;BME280;57470;50.034;15.256;2024-01-27T04:50:01;100677.63;;;4.29;82.66
70103;BME280;57470;50.034;15.256;2024-01-27T04:52:26;100669.56;;;4.35;82.38
70103;BME280;57470;50.034;15.256;2024-01-27T04:54:51;100667.69;;;4.40;81.61
70103;BME280;57470;50.034;15.256;2024-01-27T04:57:17;100679.00;;;4.45;81.82
70103;BME280;57470;50.034;15.256;2024-01-27T04:59:42;100682.59;;;4.41;81.62
70103;BME280;57470;50.034;15.256;2024-01-27T05:02:08;100677.41;;;4.38;81.55
70103;BME280;57470;50.034;15.256;2024-01-27T05:04:33;100677.69;;;4.26;81.53
70103;BME280;57470;50.034;15.256;2024-01-27T05:06:59;100682.78;;;4.34;81.60
70103;BME280;57470;50.034;15.256;2024-01-27T05:09:24;100683.69;;;4.31;81.68
70103;BME280;57470;50.034;15.256;2024-01-27T05:11:50;100680.25;;;4.29;81.56
70103;BME280;57470;50.034;15.256;2024-01-27T05:14:18;100688.28;;;4.23;80.97
70103;BME280;57470;50.034;15.256;2024-01-27T05:16:44;100700.13;;;4.42;80.63
70103;BME280;57470;50.034;15.256;2024-01-27T05:19:10;100697.56;;;4.39;81.09
70103;BME280;57470;50.034;15.256;2024-01-27T05:21:36;100698.50;;;4.37;80.72
70103;BME280;57470;50.034;15.256;2024-01-27T05:24:01;100708.41;;;4.27;80.68
70103;BME280;57470;50.034;15.256;2024-01-27T05:26:27;100708.19;;;4.36;80.69
70103;BME280;57470;50.034;15.256;2024-01-27T05:28:52;100711.81;;;4.31;80.33
70103;BME280;57470;50.034;15.256;2024-01-27T05:31:18;100722.59;;;4.57;80.52
70103;BME280;57470;50.034;15.256;2024-01-27T05:33:43;100726.72;;;4.32;80.27
70103;BME280;57470;50.034;15.256;2024-01-27T05:36:08;100730.56;;;4.17;80.56
70103;BME280;57470;50.034;15.256;2024-01-27T05:38:34;100736.59;;;4.22;80.58
70103;BME280;57470;50.034;15.256;2024-01-27T05:41:03;100728.09;;;4.11;80.22
70103;BME280;57470;50.034;15.256;2024-01-27T05:43:28;100721.84;;;4.15;80.30
70103;BME280;57470;50.034;15.256;2024-01-27T05:45:54;100729.91;;;4.07;80.13
70103;BME280;57470;50.034;15.256;2024-01-27T05:48:21;100728.13;;;4.09;80.20
70103;BME280;57470;50.034;15.256;2024-01-27T05:51:00;100729.91;;;4.07;80.79
70103;BME280;57470;50.034;15.256;2024-01-27T05:53:26;100727.53;;;3.95;81.01
70103;BME280;57470;50.034;15.256;2024-01-27T05:55:52;100726.56;;;3.99;80.92
70103;BME280;57470;50.034;15.256;2024-01-27T05:58:21;100734.34;;;4.04;80.40
70103;BME280;57470;50.034;15.256;2024-01-27T06:00:47;100732.94;;;3.89;81.03
70103;BME280;57470;50.034;15.256;2024-01-27T06:03:13;100725.84;;;3.93;80.49
70103;BME280;57470;50.034;15.256;2024-01-27T06:05:38;100726.81;;;3.87;80.88
70103;BME280;57470;50.034;15.256;2024-01-27T06:08:05;100726.16;;;3.77;81.06
70103;BME280;57470;50.034;15.256;2024-01-27T06:10:31;100720.28;;;3.65;81.59
70103;BME280;57470;50.034;15.256;2024-01-27T06:12:56;100709.66;;;3.69;81.52
70103;BME280;57470;50.034;15.256;2024-01-27T06:15:22;100720.34;;;3.62;82.16
70103;BME280;57470;50.034;15.256;2024-01-27T06:17:47;100728.25;;;3.62;82.01
70103;BME280;57470;50.034;15.256;2024-01-27T06:20:13;100731.09;;;3.50;82.17
70103;BME280;57470;50.034;15.256;2024-01-27T06:22:38;100729.97;;;3.63;82.39
70103;BME280;57470;50.034;15.256;2024-01-27T06:25:04;100737.03;;;3.59;81.99
70103;BME280;57470;50.034;15.256;2024-01-27T06:27:30;100743.25;;;3.57;81.89
70103;BME280;57470;50.034;15.256;2024-01-27T06:29:55;100750.31;;;3.53;82.59
70103;BME280;57470;50.034;15.256;2024-01-27T06:32:21;100745.06;;;3.53;82.74
70103;BME280;57470;50.034;15.256;2024-01-27T06:34:46;100744.03;;;3.60;82.78
70103;BME280;57470;50.034;15.256;2024-01-27T06:37:11;100752.81;;;3.59;82.67
70103;BME280;57470;50.034;15.256;2024-01-27T06:39:37;100751.19;;;3.54;82.74
70103;BME280;57470;50.034;15.256;2024-01-27T06:42:02;100762.28;;;3.69;82.83
70103;BME280;57470;50.034;15.256;2024-01-27T06:44:28;100769.22;;;3.73;82.51
70103;BME280;57470;50.034;15.256;2024-01-27T06:46:53;100776.28;;;3.71;82.52
70103;BME280;57470;50.034;15.256;2024-01-27T06:49:18;100773.88;;;3.59;82.95
70103;BME280;57470;50.034;15.256;2024-01-27T06:51:45;100784.16;;;3.71;82.71
70103;BME280;57470;50.034;15.256;2024-01-27T06:54:10;100792.59;;;3.89;82.25
70103;BME280;57470;50.034;15.256;2024-01-27T06:56:35;100792.97;;;3.69;82.29
70103;BME280;57470;50.034;15.256;2024-01-27T06:59:02;100804.66;;;4.00;82.08
70103;BME280;57470;50.034;15.256;2024-01-27T07:01:27;100802.81;;;4.04;82.04
70103;BME280;57470;50.034;15.256;2024-01-27T07:03:52;100812.03;;;3.82;82.24
70103;BME280;57470;50.034;15.256;2024-01-27T07:06:18;100809.28;;;3.88;82.19
70103;BME280;57470;50.034;15.256;2024-01-27T07:08:43;100825.53;;;4.09;81.63
70103;BME280;57470;50.034;15.256;2024-01-27T07:11:08;100825.69;;;4.02;81.96
70103;BME280;57470;50.034;15.256;2024-01-27T07:13:34;100829.03;;;4.10;81.89
70103;BME280;57470;50.034;15.256;2024-01-27T07:15:59;100821.41;;;3.95;82.28
70103;BME280;57470;50.034;15.256;2024-01-27T07:18:25;100826.50;;;4.04;82.12
70103;BME280;57470;50.034;15.256;2024-01-27T07:20:51;100829.88;;;4.10;81.90
70103;BME280;57470;50.034;15.256;2024-01-27T07:23:16;100838.56;;;4.14;81.71
70103;BME280;57470;50.034;15.256;2024-01-27T07:25:43;100843.19;;;4.03;81.56
70103;BME280;57470;50.034;15.256;2024-01-27T07:28:08;100850.00;;;4.13;81.61
70103;BME280;57470;50.034;15.256;2024-01-27T07:30:33;100848.22;;;4.15;82.10
70103;BME280;57470;50.034;15.256;2024-01-27T07:32:59;100839.41;;;4.16;81.80
70103;BME280;57470;50.034;15.256;2024-01-27T07:35:24;100841.47;;;4.02;82.08
70103;BME280;57470;50.034;15.256;2024-01-27T07:37:50;100839.63;;;4.05;82.03
70103;BME280;57470;50.034;15.256;2024-01-27T07:40:16;100840.50;;;4.06;82.45
70103;BME280;57470;50.034;15.256;2024-01-27T07:42:41;100846.81;;;3.97;82.38
70103;BME280;57470;50.034;15.256;2024-01-27T07:45:07;100852.69;;;4.11;82.71
70103;BME280;57470;50.034;15.256;2024-01-27T07:47:34;100862.25;;;4.15;81.90
70103;BME280;57470;50.034;15.256;2024-01-27T07:49:59;100864.75;;;4.22;81.60
70103;BME280;57470;50.034;15.256;2024-01-27T07:52:25;100873.84;;;4.48;81.42
70103;BME280;57470;50.034;15.256;2024-01-27T07:54:50;100871.75;;;4.23;81.22
70103;BME280;57470;50.034;15.256;2024-01-27T07:57:16;100858.56;;;4.24;81.14
70103;BME280;57470;50.034;15.256;2024-01-27T07:59:41;100870.63;;;4.34;81.30
70103;BME280;57470;50.034;15.256;2024-01-27T08:02:06;100878.63;;;4.30;81.54
70103;BME280;57470;50.034;15.256;2024-01-27T08:04:32;100870.81;;;4.27;81.55
70103;BME280;57470;50.034;15.256;2024-01-27T08:06:57;100865.88;;;4.51;81.23
70103;BME280;57470;50.034;15.256;2024-01-27T08:09:23;100875.72;;;4.43;81.46
70103;BME280;57470;50.034;15.256;2024-01-27T08:11:49;100876.38;;;4.55;80.95
70103;BME280;57470;50.034;15.256;2024-01-27T08:14:17;100883.06;;;4.29;80.89
70103;BME280;57470;50.034;15.256;2024-01-27T08:16:43;100884.94;;;4.64;80.64
70103;BME280;57470;50.034;15.256;2024-01-27T08:19:08;100886.00;;;4.56;80.86
70103;BME280;57470;50.034;15.256;2024-01-27T08:21:33;100883.06;;;4.69;80.75
70103;BME280;57470;50.034;15.256;2024-01-27T08:23:59;100877.13;;;4.60;80.99
70103;BME280;57470;50.034;15.256;2024-01-27T08:26:24;100878.31;;;4.45;81.02
70103;BME280;57470;50.034;15.256;2024-01-27T08:28:50;100887.81;;;4.52;80.87
70103;BME280;57470;50.034;15.256;2024-01-27T08:31:15;100897.47;;;4.53;80.67
70103;BME280;57470;50.034;15.256;2024-01-27T08:33:41;100902.22;;;4.76;80.82
70103;BME280;57470;50.034;15.256;2024-01-27T08:36:06;100901.34;;;4.77;80.47
70103;BME280;57470;50.034;15.256;2024-01-27T08:38:32;100904.13;;;4.69;80.19
70103;BME280;57470;50.034;15.256;2024-01-27T08:40:57;100899.72;;;4.71;80.51
70103;BME280;57470;50.034;15.256;2024-01-27T08:43:23;100903.41;;;4.63;80.35
70103;BME280;57470;50.034;15.256;2024-01-27T08:45:48;100905.69;;;4.79;80.58
70103;BME280;57470;50.034;15.256;2024-01-27T08:48:13;100916.69;;;4.98;80.09
70103;BME280;57470;50.034;15.256;2024-01-27T08:50:40;100924.75;;;4.90;80.00
70103;BME280;57470;50.034;15.256;2024-01-27T08:53:05;100915.53;;;5.10;79.49
70103;BME280;57470;50.034;15.256;2024-01-27T08:55:31;100900.22;;;4.87;80.34
70103;BME280;57470;50.034;15.256;2024-01-27T08:57:56;100913.53;;;4.82;79.84
70103;BME280;57470;50.034;15.256;2024-01-27T09:00:22;100914.81;;;5.02;79.25
70103;BME280;57470;50.034;15.256;2024-01-27T09:02:48;100925.72;;;5.25;79.12
70103;BME280;57470;50.034;15.256;2024-01-27T09:05:13;100923.13;;;5.23;79.31
70103;BME280;57470;50.034;15.256;2024-01-27T09:07:39;100933.25;;;5.40;79.13
70103;BME280;57470;50.034;15.256;2024-01-27T09:10:05;100925.16;;;5.48;78.26
70103;BME280;57470;50.034;15.256;2024-01-27T09:12:30;100924.03;;;5.22;78.12
70103;BME280;57470;50.034;15.256;2024-01-27T09:14:55;100924.22;;;5.13;78.19
70103;BME280;57470;50.034;15.256;2024-01-27T09:17:21;100919.00;;;5.12;78.92
70103;BME280;57470;50.034;15.256;2024-01-27T09:19:47;100930.66;;;5.39;79.07
70103;BME280;57470;50.034;15.256;2024-01-27T09:22:12;100920.31;;;5.29;78.57
70103;BME280;57470;50.034;15.256;2024-01-27T09:24:38;100933.84;;;5.16;78.68
70103;BME280;57470;50.034;15.256;2024-01-27T09:27:03;100924.25;;;5.49;78.04
70103;BME280;57470;50.034;15.256;2024-01-27T09:29:29;100921.09;;;5.35;77.87
70103;BME280;57470;50.034;15.256;2024-01-27T09:31:55;100925.28;;;5.43;78.20
70103;BME280;57470;50.034;15.256;2024-01-27T09:34:20;100934.16;;;5.39;77.76
70103;BME280;57470;50.034;15.256;2024-01-27T09:36:45;100932.25;;;5.46;77.72
70103;BME280;57470;50.034;15.256;2024-01-27T09:39:11;100928.91;;;5.38;77.83
70103;BME280;57470;50.034;15.256;2024-01-27T09:41:36;100937.44;;;5.49;77.60
70103;BME280;57470;50.034;15.256;2024-01-27T09:44:04;100928.03;;;5.39;77.02
70103;BME280;57470;50.034;15.256;2024-01-27T09:46:30;100935.28;;;5.64;77.56
70103;BME280;57470;50.034;15.256;2024-01-27T09:48:56;100950.22;;;5.65;77.19
70103;BME280;57470;50.034;15.256;2024-01-27T09:51:22;100935.13;;;5.72;76.96
70103;BME280;57470;50.034;15.256;2024-01-27T09:53:48;100954.06;;;5.89;76.75
70103;BME280;57470;50.034;15.256;2024-01-27T09:56:16;100948.16;;;5.78;76.13
70103;BME280;57470;50.034;15.256;2024-01-27T09:58:44;100956.66;;;5.91;76.53
70103;BME280;57470;50.034;15.256;2024-01-27T10:01:10;100957.78;;;5.81;76.92
70103;BME280;57470;50.034;15.256;2024-01-27T10:03:39;100947.59;;;6.01;76.40
70103;BME280;57470;50.034;15.256;2024-01-27T10:06:08;100959.69;;;6.10;75.92
70103;BME280;57470;50.034;15.256;2024-01-27T10:08:34;100944.06;;;6.00;76.33
70103;BME280;57470;50.034;15.256;2024-01-27T10:11:04;100966.22;;;5.96;75.83
70103;BME280;57470;50.034;15.256;2024-01-27T10:13:32;100956.31;;;6.05;75.67
70103;BME280;57470;50.034;15.256;2024-01-27T10:16:05;100949.59;;;5.91;75.57
70103;BME280;57470;50.034;15.256;2024-01-27T10:18:32;100960.13;;;5.93;75.88
70103;BME280;57470;50.034;15.256;2024-01-27T10:20:58;100948.72;;;5.91;75.73
70103;BME280;57470;50.034;15.256;2024-01-27T10:23:24;100949.03;;;5.79;75.93
70103;BME280;57470;50.034;15.256;2024-01-27T10:25:50;100935.59;;;5.89;76.49
70103;BME280;57470;50.034;15.256;2024-01-27T10:28:16;100932.59;;;6.01;75.90
70103;BME280;57470;50.034;15.256;2024-01-27T10:30:42;100933.97;;;5.82;76.42
70103;BME280;57470;50.034;15.256;2024-01-27T10:33:09;100944.09;;;5.65;76.66
70103;BME280;57470;50.034;15.256;2024-01-27T10:35:35;100940.97;;;5.83;76.61
70103;BME280;57470;50.034;15.256;2024-01-27T10:38:01;100927.25;;;5.71;77.09
70103;BME280;57470;50.034;15.256;2024-01-27T10:40:27;100934.13;;;5.76;77.17
70103;BME280;57470;50.034;15.256;2024-01-27T10:43:03;100930.97;;;5.62;77.57
70103;BME280;57470;50.034;15.256;2024-01-27T10:45:55;100930.41;;;5.83;77.68
70103;BME280;57470;50.034;15.256;2024-01-27T10:48:22;100915.78;;;5.72;77.49
70103;BME280;57470;50.034;15.256;2024-01-27T10:50:49;100925.03;;;5.89;77.25
70103;BME280;57470;50.034;15.256;2024-01-27T10:53:24;100926.81;;;5.89;77.72
70103;BME280;57470;50.034;15.256;2024-01-27T10:55:57;100929.44;;;5.87;77.79
70103;BME280;57470;50.034;15.256;2024-01-27T10:58:26;100934.78;;;5.84;78.28
70103;BME280;57470;50.034;15.256;2024-01-27T11:00:56;100930.06;;;5.98;77.87
70103;BME280;57470;50.034;15.256;2024-01-27T11:03:22;100929.81;;;6.08;77.83
70103;BME280;57470;50.034;15.256;2024-01-27T11:05:50;100933.28;;;6.10;77.55
70103;BME280;57470;50.034;15.256;2024-01-27T11:08:17;100921.50;;;5.90;77.69
70103;BME280;57470;50.034;15.256;2024-01-27T11:10:43;100937.06;;;5.99;77.91
70103;BME280;57470;50.034;15.256;2024-01-27T11:13:09;100929.31;;;5.93;77.92
70103;BME280;57470;50.034;15.256;2024-01-27T11:15:35;100946.00;;;5.95;78.30
70103;BME280;57470;50.034;15.256;2024-01-27T11:18:00;100956.25;;;6.08;78.07
70103;BME280;57470;50.034;15.256;2024-01-27T11:20:27;100958.00;;;6.07;78.13
70103;BME280;57470;50.034;15.256;2024-01-27T11:22:52;100944.69;;;6.10;78.66
70103;BME280;57470;50.034;15.256;2024-01-27T11:25:19;100952.81;;;6.04;78.70
70103;BME280;57470;50.034;15.256;2024-01-27T11:27:46;100950.09;;;6.07;78.61
70103;BME280;57470;50.034;15.256;2024-01-27T11:30:30;100953.47;;;6.12;79.25
70103;BME280;57470;50.034;15.256;2024-01-27T11:32:57;100940.88;;;6.22;78.77
70103;BME280;57470;50.034;15.256;2024-01-27T11:35:26;100947.97;;;6.20;79.28
70103;BME280;57470;50.034;15.256;2024-01-27T11:37:52;100939.97;;;6.23;79.71
70103;BME280;57470;50.034;15.256;2024-01-27T11:40:17;100944.31;;;6.25;78.96
70103;BME280;57470;50.034;15.256;2024-01-27T11:42:43;100943.44;;;6.25;79.09
70103;BME280;57470;50.034;15.256;2024-01-27T11:45:09;100938.25;;;6.53;78.63
70103;BME280;57470;50.034;15.256;2024-01-27T11:47:35;100933.53;;;6.33;78.99
70103;BME280;57470;50.034;15.256;2024-01-27T11:50:00;100920.38;;;6.30;78.28
70103;BME280;57470;50.034;15.256;2024-01-27T11:52:27;100924.22;;;6.51;78.07
70103;BME280;57470;50.034;15.256;2024-01-27T11:54:57;100940.25;;;7.03;77.54
70103;BME280;57470;50.034;15.256;2024-01-27T11:57:24;100926.94;;;6.48;78.03
70103;BME280;57470;50.034;15.256;2024-01-27T11:59:50;100934.41;;;6.63;78.67
70103;BME280;57470;50.034;15.256;2024-01-27T12:02:16;100937.63;;;6.74;77.63
70103;BME280;57470;50.034;15.256;2024-01-27T12:04:41;100947.38;;;6.72;77.52
70103;BME280;57470;50.034;15.256;2024-01-27T12:07:07;100941.41;;;6.65;76.79
70103;BME280;57470;50.034;15.256;2024-01-27T12:09:32;100942.72;;;6.51;76.72
70103;BME280;57470;50.034;15.256;2024-01-27T12:11:58;100958.28;;;6.61;77.48
70103;BME280;57470;50.034;15.256;2024-01-27T12:14:23;100956.00;;;6.78;77.07
70103;BME280;57470;50.034;15.256;2024-01-27T12:16:50;100942.63;;;6.83;76.68
70103;BME280;57470;50.034;15.256;2024-01-27T12:19:16;100942.00;;;7.04;76.61
70103;BME280;57470;50.034;15.256;2024-01-27T12:21:50;100945.41;;;7.08;76.41
70103;BME280;57470;50.034;15.256;2024-01-27T12:24:16;100940.44;;;7.25;76.44
70103;BME280;57470;50.034;15.256;2024-01-27T12:26:44;100943.28;;;7.19;76.63
70103;BME280;57470;50.034;15.256;2024-01-27T12:29:10;100937.84;;;6.96;76.46
70103;BME280;57470;50.034;15.256;2024-01-27T12:31:36;100944.78;;;7.00;76.92
70103;BME280;57470;50.034;15.256;2024-01-27T12:34:01;100951.84;;;6.99;76.32
70103;BME280;57470;50.034;15.256;2024-01-27T12:36:27;100949.81;;;7.07;75.74
70103;BME280;57470;50.034;15.256;2024-01-27T12:39:00;100950.72;;;6.78;75.70
70103;BME280;57470;50.034;15.256;2024-01-27T12:41:26;100950.53;;;7.14;75.89
70103;BME280;57470;50.034;15.256;2024-01-27T12:43:52;100951.03;;;7.25;75.18